Aérodrome :
LOGIN :

S'inscrire | Disclaimer

   EN    FR    IT 

 










Légende :    VFR   VFR Marginal   IFR   IFR Intensif   IFR Très Intensif
Visi : 
Plafond : 
>= 8 km
>= 3000ft
5 à 8 km
1000 à 3000 ft
1500m à 5 km
500 à 1000 ft
800 à 1500m
200 à 500 ft
< 800m
< 200 ft
Symboles :   Orages  Brouillard  Fortes neiges  Fortes précipitations  Vent > 20 kt
SIGMETs :   Divers  Orages  Givrage  Turbulence  Onde Orograph.  Cendres Volcan.







- Altitude de l'aérodrome : 1060 ft
- Code IATA : GAF


DTTF - Gafsa

DERNIER METAR :
  • 181800Z 24005KT 9999 FEW026 SCT033 19/14 Q1006 NOSIG

METARs EXPIRÉS :
  • 181700Z 26004KT 220V280 9999 FEW026 SCT033 19/14 Q1005 NOSIG
  • 181600Z 25006KT 210V270 9999 FEW026 SCT033 20/14 Q1004 NOSIG

TAF TAF DTTF
Valide du 18 à 19h jusqu'au 19 à 04h UTC


181800Z 1819/1904 23007KT 9999 SCT026
Pas de NOTAMs connus pour ce terrain.



MET'MAP, la Météo Aéronautique d'un coup d'oeil ! - Copyright ORBIFLY Décembre 2007 - Disclaimer

ORBIFLY MET'MAP TEAM :

Programmation & Développement : Alexandra Zaïnal
Conception & Développement : Baudouin d'Aumeries
Co-Programmation & Développement : Marc-Olivier Méhu
Soutien technique & logistique : Manuel Goepfert

Contact : metmap@orbifly.com




SOURCES & CREDITS :

   NOAA